sensor_id;sensor_type;location;lat;lon;timestamp;pressure;altitude;pressure_sealevel;temperature;humidity
84841;BME280;75088;53.114;18.040;2024-03-02T00:01:07;100770.08;;;8.22;79.81
84841;BME280;75088;53.114;18.040;2024-03-02T00:02:23;100769.91;;;8.20;79.86
84841;BME280;75088;53.114;18.040;2024-03-02T00:03:30;100771.34;;;8.19;79.73
84841;BME280;75088;53.114;18.040;2024-03-02T00:04:38;100769.41;;;8.18;79.87
84841;BME280;75088;53.114;18.040;2024-03-02T00:05:49;100769.22;;;8.16;79.89
84841;BME280;75088;53.114;18.040;2024-03-02T00:06:57;100764.09;;;8.14;79.98
84841;BME280;75088;53.114;18.040;2024-03-02T00:08:06;100765.51;;;8.12;79.95
84841;BME280;75088;53.114;18.040;2024-03-02T00:09:13;100763.02;;;8.12;80.19
84841;BME280;75088;53.114;18.040;2024-03-02T00:10:24;100765.33;;;8.11;80.30
84841;BME280;75088;53.114;18.040;2024-03-02T00:11:37;100763.55;;;8.10;80.01
84841;BME280;75088;53.114;18.040;2024-03-02T00:12:48;100764.97;;;8.09;80.19
84841;BME280;75088;53.114;18.040;2024-03-02T00:13:55;100769.04;;;8.09;80.20
84841;BME280;75088;53.114;18.040;2024-03-02T00:15:02;100769.92;;;8.07;79.80
84841;BME280;75088;53.114;18.040;2024-03-02T00:16:11;100772.22;;;8.07;80.15
84841;BME280;75088;53.114;18.040;2024-03-02T00:17:25;100774.34;;;8.06;80.22
84841;BME280;75088;53.114;18.040;2024-03-02T00:18:34;100774.87;;;8.05;80.05
84841;BME280;75088;53.114;18.040;2024-03-02T00:19:41;100772.56;;;8.04;80.35
84841;BME280;75088;53.114;18.040;2024-03-02T00:20:48;100774.16;;;8.03;80.31
84841;BME280;75088;53.114;18.040;2024-03-02T00:21:55;100774.16;;;8.03;80.55
84841;BME280;75088;53.114;18.040;2024-03-02T00:23:05;100772.39;;;8.02;80.46
84841;BME280;75088;53.114;18.040;2024-03-02T00:24:23;100771.86;;;8.02;80.48
84841;BME280;75088;53.114;18.040;2024-03-02T00:25:39;100769.55;;;8.01;80.42
84841;BME280;75088;53.114;18.040;2024-03-02T00:26:47;100767.96;;;8.00;80.79
84841;BME280;75088;53.114;18.040;2024-03-02T00:27:54;100767.43;;;7.99;80.46
84841;BME280;75088;53.114;18.040;2024-03-02T00:29:01;100766.20;;;7.99;80.85
84841;BME280;75088;53.114;18.040;2024-03-02T00:31:50;100760.35;;;7.97;80.45
84841;BME280;75088;53.114;18.040;2024-03-02T00:32:57;100763.17;;;7.97;80.75
84841;BME280;75088;53.114;18.040;2024-03-02T00:34:06;100763.88;;;7.97;80.75
84841;BME280;75088;53.114;18.040;2024-03-02T00:35:14;100761.77;;;7.95;80.62
84841;BME280;75088;53.114;18.040;2024-03-02T00:36:26;100761.95;;;7.94;80.65
84841;BME280;75088;53.114;18.040;2024-03-02T00:37:33;100761.25;;;7.93;80.84
84841;BME280;75088;53.114;18.040;2024-03-02T00:38:46;100763.91;;;7.93;80.81
84841;BME280;75088;53.114;18.040;2024-03-02T00:39:54;100760.20;;;7.92;80.66
84841;BME280;75088;53.114;18.040;2024-03-02T00:41:03;100760.91;;;7.92;80.84
84841;BME280;75088;53.114;18.040;2024-03-02T00:42:13;100767.45;;;7.91;80.80
84841;BME280;75088;53.114;18.040;2024-03-02T00:43:41;100764.97;;;7.90;80.76
84841;BME280;75088;53.114;18.040;2024-03-02T00:44:49;100760.02;;;7.90;80.79
84841;BME280;75088;53.114;18.040;2024-03-02T00:45:56;100761.61;;;7.89;80.83
84841;BME280;75088;53.114;18.040;2024-03-02T00:47:03;100766.57;;;7.89;80.98
84841;BME280;75088;53.114;18.040;2024-03-02T00:48:11;100766.39;;;7.89;81.36
84841;BME280;75088;53.114;18.040;2024-03-02T00:49:22;100765.50;;;7.89;81.34
84841;BME280;75088;53.114;18.040;2024-03-02T00:50:29;100762.67;;;7.88;81.19
84841;BME280;75088;53.114;18.040;2024-03-02T00:51:38;100764.61;;;7.87;80.85
84841;BME280;75088;53.114;18.040;2024-03-02T00:52:47;100763.38;;;7.86;81.28
84841;BME280;75088;53.114;18.040;2024-03-02T00:53:58;100765.85;;;7.85;81.14
84841;BME280;75088;53.114;18.040;2024-03-02T00:55:07;100761.25;;;7.85;81.15
84841;BME280;75088;53.114;18.040;2024-03-02T00:56:15;100765.31;;;7.84;81.06
84841;BME280;75088;53.114;18.040;2024-03-02T00:57:22;100765.48;;;7.84;81.11
84841;BME280;75088;53.114;18.040;2024-03-02T00:58:31;100761.60;;;7.83;81.53
84841;BME280;75088;53.114;18.040;2024-03-02T00:59:38;100758.59;;;7.82;81.64
84841;BME280;75088;53.114;18.040;2024-03-02T01:00:45;100757.17;;;7.81;81.77
84841;BME280;75088;53.114;18.040;2024-03-02T01:01:52;100756.46;;;7.79;81.75
84841;BME280;75088;53.114;18.040;2024-03-02T01:03:00;100759.64;;;7.77;81.17
84841;BME280;75088;53.114;18.040;2024-03-02T01:04:07;100755.57;;;7.77;81.76
84841;BME280;75088;53.114;18.040;2024-03-02T01:05:14;100753.27;;;7.76;81.22
84841;BME280;75088;53.114;18.040;2024-03-02T01:06:22;100748.33;;;7.77;81.34
84841;BME280;75088;53.114;18.040;2024-03-02T01:07:29;100752.74;;;7.77;81.63
84841;BME280;75088;53.114;18.040;2024-03-02T01:08:36;100749.21;;;7.77;81.60
84841;BME280;75088;53.114;18.040;2024-03-02T01:09:43;100750.27;;;7.77;81.28
84841;BME280;75088;53.114;18.040;2024-03-02T01:10:50;100744.79;;;7.77;81.27
84841;BME280;75088;53.114;18.040;2024-03-02T01:11:58;100744.61;;;7.76;81.57
84841;BME280;75088;53.114;18.040;2024-03-02T01:13:05;100736.11;;;7.76;81.56
84841;BME280;75088;53.114;18.040;2024-03-02T01:14:12;100736.30;;;7.75;81.53
84841;BME280;75088;53.114;18.040;2024-03-02T01:15:19;100738.05;;;7.75;81.64
84841;BME280;75088;53.114;18.040;2024-03-02T01:16:26;100735.05;;;7.75;81.41
84841;BME280;75088;53.114;18.040;2024-03-02T01:17:34;100735.05;;;7.76;81.79
84841;BME280;75088;53.114;18.040;2024-03-02T01:18:41;100736.11;;;7.75;81.54
84841;BME280;75088;53.114;18.040;2024-03-02T01:19:49;100733.46;;;7.75;81.62
84841;BME280;75088;53.114;18.040;2024-03-02T01:20:56;100734.70;;;7.73;81.76
84841;BME280;75088;53.114;18.040;2024-03-02T01:22:03;100734.34;;;7.73;81.91
84841;BME280;75088;53.114;18.040;2024-03-02T01:23:10;100735.94;;;7.73;81.69
84841;BME280;75088;53.114;18.040;2024-03-02T01:24:18;100735.40;;;7.73;81.99
84841;BME280;75088;53.114;18.040;2024-03-02T01:25:25;100734.88;;;7.73;81.59
84841;BME280;75088;53.114;18.040;2024-03-02T01:26:32;100733.98;;;7.73;81.68
84841;BME280;75088;53.114;18.040;2024-03-02T01:27:39;100732.75;;;7.72;81.67
84841;BME280;75088;53.114;18.040;2024-03-02T01:28:46;100733.98;;;7.71;81.82
84841;BME280;75088;53.114;18.040;2024-03-02T01:29:54;100727.62;;;7.70;81.62
84841;BME280;75088;53.114;18.040;2024-03-02T01:31:01;100721.42;;;7.69;81.62
84841;BME280;75088;53.114;18.040;2024-03-02T01:32:09;100718.77;;;7.69;81.63
84841;BME280;75088;53.114;18.040;2024-03-02T01:33:16;100718.06;;;7.68;81.55
84841;BME280;75088;53.114;18.040;2024-03-02T01:34:23;100715.24;;;7.66;81.87
84841;BME280;75088;53.114;18.040;2024-03-02T01:35:30;100714.89;;;7.66;82.24
84841;BME280;75088;53.114;18.040;2024-03-02T01:36:37;100717.20;;;7.65;81.68
84841;BME280;75088;53.114;18.040;2024-03-02T01:37:44;100713.84;;;7.64;81.95
84841;BME280;75088;53.114;18.040;2024-03-02T01:38:52;100713.31;;;7.63;82.11
84841;BME280;75088;53.114;18.040;2024-03-02T01:39:59;100712.78;;;7.62;82.09
84841;BME280;75088;53.114;18.040;2024-03-02T01:41:06;100711.02;;;7.61;81.79
84841;BME280;75088;53.114;18.040;2024-03-02T01:42:13;100709.24;;;7.61;81.79
84841;BME280;75088;53.114;18.040;2024-03-02T01:43:21;100710.13;;;7.60;82.27
84841;BME280;75088;53.114;18.040;2024-03-02T01:44:28;100713.84;;;7.60;81.86
84841;BME280;75088;53.114;18.040;2024-03-02T01:45:36;100710.48;;;7.59;82.04
84841;BME280;75088;53.114;18.040;2024-03-02T01:46:43;100709.06;;;7.58;82.04
84841;BME280;75088;53.114;18.040;2024-03-02T01:47:51;100712.42;;;7.59;82.22
84841;BME280;75088;53.114;18.040;2024-03-02T01:48:58;100715.25;;;7.58;81.90
84841;BME280;75088;53.114;18.040;2024-03-02T01:50:07;100717.73;;;7.58;82.03
84841;BME280;75088;53.114;18.040;2024-03-02T01:51:14;100714.19;;;7.58;82.00
84841;BME280;75088;53.114;18.040;2024-03-02T01:52:21;100714.72;;;7.59;81.82
84841;BME280;75088;53.114;18.040;2024-03-02T01:53:28;100715.24;;;7.58;81.69
84841;BME280;75088;53.114;18.040;2024-03-02T01:54:36;100714.00;;;7.58;81.95
84841;BME280;75088;53.114;18.040;2024-03-02T01:55:42;100714.36;;;7.57;82.16
84841;BME280;75088;53.114;18.040;2024-03-02T01:56:50;100717.19;;;7.58;82.18
84841;BME280;75088;53.114;18.040;2024-03-02T01:57:58;100711.17;;;7.58;82.16
84841;BME280;75088;53.114;18.040;2024-03-02T01:59:05;100715.25;;;7.56;82.32
84841;BME280;75088;53.114;18.040;2024-03-02T02:00:14;100717.19;;;7.56;81.94
84841;BME280;75088;53.114;18.040;2024-03-02T02:01:21;100721.61;;;7.56;82.06
84841;BME280;75088;53.114;18.040;2024-03-02T02:02:29;100718.77;;;7.57;81.99
84841;BME280;75088;53.114;18.040;2024-03-02T02:03:36;100719.48;;;7.57;82.23
84841;BME280;75088;53.114;18.040;2024-03-02T02:04:44;100717.73;;;7.57;82.08
84841;BME280;75088;53.114;18.040;2024-03-02T02:05:51;100714.89;;;7.55;82.32
84841;BME280;75088;53.114;18.040;2024-03-02T02:06:58;100713.30;;;7.54;82.06
84841;BME280;75088;53.114;18.040;2024-03-02T02:08:06;100710.98;;;7.53;81.82
84841;BME280;75088;53.114;18.040;2024-03-02T02:09:13;100713.63;;;7.52;81.67
84841;BME280;75088;53.114;18.040;2024-03-02T02:10:21;100708.86;;;7.49;82.08
84841;BME280;75088;53.114;18.040;2024-03-02T02:11:28;100711.69;;;7.47;82.00
84841;BME280;75088;53.114;18.040;2024-03-02T02:12:36;100713.80;;;7.45;82.23
84841;BME280;75088;53.114;18.040;2024-03-02T02:13:43;100712.73;;;7.44;82.06
84841;BME280;75088;53.114;18.040;2024-03-02T02:14:50;100708.48;;;7.41;82.08
84841;BME280;75088;53.114;18.040;2024-03-02T02:16:06;100703.53;;;7.40;81.93
84841;BME280;75088;53.114;18.040;2024-03-02T02:17:13;100705.33;;;7.37;81.92
84841;BME280;75088;53.114;18.040;2024-03-02T02:18:20;100702.84;;;7.34;82.11
84841;BME280;75088;53.114;18.040;2024-03-02T02:19:27;100701.42;;;7.32;82.18
84841;BME280;75088;53.114;18.040;2024-03-02T02:20:34;100702.30;;;7.28;82.41
84841;BME280;75088;53.114;18.040;2024-03-02T02:21:44;100704.94;;;7.26;82.20
84841;BME280;75088;53.114;18.040;2024-03-02T02:22:57;100707.40;;;7.24;82.15
84841;BME280;75088;53.114;18.040;2024-03-02T02:24:05;100703.87;;;7.22;82.14
84841;BME280;75088;53.114;18.040;2024-03-02T02:25:12;100707.57;;;7.21;82.22
84841;BME280;75088;53.114;18.040;2024-03-02T02:26:19;100712.34;;;7.19;82.28
84841;BME280;75088;53.114;18.040;2024-03-02T02:27:26;100710.20;;;7.18;82.01
84841;BME280;75088;53.114;18.040;2024-03-02T02:28:33;100712.67;;;7.16;82.23
84841;BME280;75088;53.114;18.040;2024-03-02T02:29:40;100713.20;;;7.14;82.18
84841;BME280;75088;53.114;18.040;2024-03-02T02:30:47;100716.55;;;7.12;82.14
84841;BME280;75088;53.114;18.040;2024-03-02T02:31:54;100716.75;;;7.10;82.46
84841;BME280;75088;53.114;18.040;2024-03-02T02:33:02;100715.14;;;7.07;82.41
84841;BME280;75088;53.114;18.040;2024-03-02T02:34:09;100715.85;;;7.05;82.19
84841;BME280;75088;53.114;18.040;2024-03-02T02:35:16;100711.77;;;7.04;82.22
84841;BME280;75088;53.114;18.040;2024-03-02T02:36:23;100708.59;;;7.02;82.55
84841;BME280;75088;53.114;18.040;2024-03-02T02:37:31;100711.94;;;7.01;82.64
84841;BME280;75088;53.114;18.040;2024-03-02T02:38:42;100710.34;;;6.99;82.74
84841;BME280;75088;53.114;18.040;2024-03-02T02:39:49;100710.52;;;6.98;82.80
84841;BME280;75088;53.114;18.040;2024-03-02T02:40:56;100709.80;;;6.97;82.58
84841;BME280;75088;53.114;18.040;2024-03-02T02:42:04;100711.73;;;6.96;82.57
84841;BME280;75088;53.114;18.040;2024-03-02T02:43:11;100709.97;;;6.94;82.64
84841;BME280;75088;53.114;18.040;2024-03-02T02:44:18;100709.43;;;6.94;82.85
84841;BME280;75088;53.114;18.040;2024-03-02T02:45:25;100714.38;;;6.92;82.66
84841;BME280;75088;53.114;18.040;2024-03-02T02:46:32;100712.23;;;6.90;83.01
84841;BME280;75088;53.114;18.040;2024-03-02T02:47:39;100709.77;;;6.88;82.67
84841;BME280;75088;53.114;18.040;2024-03-02T02:48:48;100707.81;;;6.87;82.75
84841;BME280;75088;53.114;18.040;2024-03-02T02:49:56;100710.10;;;6.85;82.66
84841;BME280;75088;53.114;18.040;2024-03-02T02:51:03;100708.52;;;6.84;82.74
84841;BME280;75088;53.114;18.040;2024-03-02T02:52:10;100707.82;;;6.82;82.82
84841;BME280;75088;53.114;18.040;2024-03-02T02:53:17;100704.10;;;6.80;82.71
84841;BME280;75088;53.114;18.040;2024-03-02T02:54:24;100707.44;;;6.79;82.73
84841;BME280;75088;53.114;18.040;2024-03-02T02:55:32;100708.50;;;6.77;82.99
84841;BME280;75088;53.114;18.040;2024-03-02T02:56:39;100707.26;;;6.76;82.83
84841;BME280;75088;53.114;18.040;2024-03-02T02:57:47;100708.84;;;6.74;83.03
84841;BME280;75088;53.114;18.040;2024-03-02T02:58:54;100707.42;;;6.73;82.68
84841;BME280;75088;53.114;18.040;2024-03-02T03:00:01;100705.64;;;6.72;82.87
84841;BME280;75088;53.114;18.040;2024-03-02T03:01:16;100704.58;;;6.70;82.68
84841;BME280;75088;53.114;18.040;2024-03-02T03:02:23;100707.56;;;6.68;83.01
84841;BME280;75088;53.114;18.040;2024-03-02T03:03:30;100707.02;;;6.67;82.96
84841;BME280;75088;53.114;18.040;2024-03-02T03:04:37;100713.55;;;6.66;82.87
84841;BME280;75088;53.114;18.040;2024-03-02T03:05:46;100710.90;;;6.64;82.70
84841;BME280;75088;53.114;18.040;2024-03-02T03:06:53;100717.59;;;6.62;82.80
84841;BME280;75088;53.114;18.040;2024-03-02T03:08:00;100716.70;;;6.60;82.90
84841;BME280;75088;53.114;18.040;2024-03-02T03:09:08;100719.34;;;6.58;82.88
84841;BME280;75088;53.114;18.040;2024-03-02T03:10:16;100716.69;;;6.57;82.82
84841;BME280;75088;53.114;18.040;2024-03-02T03:11:24;100717.75;;;6.56;82.92
84841;BME280;75088;53.114;18.040;2024-03-02T03:12:32;100716.52;;;6.55;83.10
84841;BME280;75088;53.114;18.040;2024-03-02T03:13:39;100716.15;;;6.53;82.86
84841;BME280;75088;53.114;18.040;2024-03-02T03:14:47;100717.55;;;6.52;83.01
84841;BME280;75088;53.114;18.040;2024-03-02T03:15:54;100720.55;;;6.51;82.70
84841;BME280;75088;53.114;18.040;2024-03-02T03:17:01;100721.60;;;6.49;83.20
84841;BME280;75088;53.114;18.040;2024-03-02T03:18:09;100724.41;;;6.48;82.99
84841;BME280;75088;53.114;18.040;2024-03-02T03:19:16;100726.70;;;6.48;83.15
84841;BME280;75088;53.114;18.040;2024-03-02T03:20:23;100720.17;;;6.47;83.39
84841;BME280;75088;53.114;18.040;2024-03-02T03:21:30;100720.70;;;6.47;83.18
84841;BME280;75088;53.114;18.040;2024-03-02T03:22:37;100713.64;;;6.46;83.06
84841;BME280;75088;53.114;18.040;2024-03-02T03:23:44;100718.23;;;6.45;82.99
84841;BME280;75088;53.114;18.040;2024-03-02T03:24:52;100717.17;;;6.45;83.19
84841;BME280;75088;53.114;18.040;2024-03-02T03:25:59;100718.40;;;6.45;83.46
84841;BME280;75088;53.114;18.040;2024-03-02T03:27:06;100717.69;;;6.45;83.26
84841;BME280;75088;53.114;18.040;2024-03-02T03:28:13;100715.58;;;6.45;83.53
84841;BME280;75088;53.114;18.040;2024-03-02T03:29:20;100711.35;;;6.46;83.43
84841;BME280;75088;53.114;18.040;2024-03-02T03:30:27;100709.23;;;6.46;83.31
84841;BME280;75088;53.114;18.040;2024-03-02T03:31:34;100714.88;;;6.48;83.40
84841;BME280;75088;53.114;18.040;2024-03-02T03:32:41;100709.95;;;6.49;83.15
84841;BME280;75088;53.114;18.040;2024-03-02T03:33:48;100708.73;;;6.50;83.46
84841;BME280;75088;53.114;18.040;2024-03-02T03:34:56;100708.73;;;6.52;83.66
84841;BME280;75088;53.114;18.040;2024-03-02T03:36:04;100707.87;;;6.53;83.59
84841;BME280;75088;53.114;18.040;2024-03-02T03:37:11;100709.63;;;6.54;83.85
84841;BME280;75088;53.114;18.040;2024-03-02T03:38:18;100701.16;;;6.55;83.65
84841;BME280;75088;53.114;18.040;2024-03-02T03:39:25;100701.16;;;6.56;83.61
84841;BME280;75088;53.114;18.040;2024-03-02T03:40:32;100701.33;;;6.58;83.74
84841;BME280;75088;53.114;18.040;2024-03-02T03:41:41;100704.33;;;6.58;83.56
84841;BME280;75088;53.114;18.040;2024-03-02T03:42:48;100704.52;;;6.60;83.54
84841;BME280;75088;53.114;18.040;2024-03-02T03:43:56;100696.75;;;6.61;83.36
84841;BME280;75088;53.114;18.040;2024-03-02T03:45:03;100701.70;;;6.63;83.10
84841;BME280;75088;53.114;18.040;2024-03-02T03:46:10;100693.42;;;6.64;83.23
84841;BME280;75088;53.114;18.040;2024-03-02T03:47:17;100696.77;;;6.65;83.57
84841;BME280;75088;53.114;18.040;2024-03-02T03:48:25;100693.78;;;6.66;83.52
84841;BME280;75088;53.114;18.040;2024-03-02T03:49:36;100698.73;;;6.67;83.58
84841;BME280;75088;53.114;18.040;2024-03-02T03:50:43;100694.50;;;6.67;83.56
84841;BME280;75088;53.114;18.040;2024-03-02T03:51:50;100695.38;;;6.67;83.50
84841;BME280;75088;53.114;18.040;2024-03-02T03:52:57;100696.09;;;6.68;83.30
84841;BME280;75088;53.114;18.040;2024-03-02T03:54:04;100697.15;;;6.69;83.47
84841;BME280;75088;53.114;18.040;2024-03-02T03:55:13;100697.34;;;6.70;83.52
84841;BME280;75088;53.114;18.040;2024-03-02T03:56:20;100696.46;;;6.71;83.35
84841;BME280;75088;53.114;18.040;2024-03-02T03:57:27;100695.75;;;6.72;83.36
84841;BME280;75088;53.114;18.040;2024-03-02T03:58:34;100695.41;;;6.72;83.41
84841;BME280;75088;53.114;18.040;2024-03-02T03:59:41;100694.52;;;6.73;83.44
84841;BME280;75088;53.114;18.040;2024-03-02T04:00:49;100696.30;;;6.74;83.34
84841;BME280;75088;53.114;18.040;2024-03-02T04:01:56;100690.48;;;6.75;83.49
84841;BME280;75088;53.114;18.040;2024-03-02T04:03:03;100690.48;;;6.76;83.17
84841;BME280;75088;53.114;18.040;2024-03-02T04:04:10;100688.55;;;6.76;83.24
84841;BME280;75088;53.114;18.040;2024-03-02T04:05:17;100683.77;;;6.77;83.45
84841;BME280;75088;53.114;18.040;2024-03-02T04:06:24;100682.38;;;6.78;83.34
84841;BME280;75088;53.114;18.040;2024-03-02T04:07:31;100687.14;;;6.78;83.25
84841;BME280;75088;53.114;18.040;2024-03-02T04:08:39;100683.42;;;6.78;83.43
84841;BME280;75088;53.114;18.040;2024-03-02T04:09:45;100683.61;;;6.79;83.24
84841;BME280;75088;53.114;18.040;2024-03-02T04:10:53;100681.14;;;6.79;83.23
84841;BME280;75088;53.114;18.040;2024-03-02T04:12:00;100682.20;;;6.79;83.32
84841;BME280;75088;53.114;18.040;2024-03-02T04:13:07;100680.27;;;6.80;83.25
84841;BME280;75088;53.114;18.040;2024-03-02T04:14:14;100682.91;;;6.81;83.56
84841;BME280;75088;53.114;18.040;2024-03-02T04:15:21;100683.27;;;6.81;83.35
84841;BME280;75088;53.114;18.040;2024-03-02T04:16:29;100678.86;;;6.82;83.42
84841;BME280;75088;53.114;18.040;2024-03-02T04:17:36;100682.04;;;6.83;83.23
84841;BME280;75088;53.114;18.040;2024-03-02T04:18:43;100684.86;;;6.83;83.19
84841;BME280;75088;53.114;18.040;2024-03-02T04:19:50;100686.98;;;6.84;83.15
84841;BME280;75088;53.114;18.040;2024-03-02T04:20:57;100688.38;;;6.85;83.09
84841;BME280;75088;53.114;18.040;2024-03-02T04:22:05;100681.30;;;6.85;83.01
84841;BME280;75088;53.114;18.040;2024-03-02T04:23:13;100681.14;;;6.86;83.15
84841;BME280;75088;53.114;18.040;2024-03-02T04:24:20;100683.08;;;6.86;83.36
84841;BME280;75088;53.114;18.040;2024-03-02T04:25:27;100680.27;;;6.87;83.05
84841;BME280;75088;53.114;18.040;2024-03-02T04:26:37;100679.38;;;6.87;83.42
84841;BME280;75088;53.114;18.040;2024-03-02T04:27:44;100680.61;;;6.87;83.14
84841;BME280;75088;53.114;18.040;2024-03-02T04:28:51;100678.84;;;6.87;83.19
84841;BME280;75088;53.114;18.040;2024-03-02T04:29:58;100678.50;;;6.88;83.10
84841;BME280;75088;53.114;18.040;2024-03-02T04:31:07;100677.98;;;6.88;83.28
84841;BME280;75088;53.114;18.040;2024-03-02T04:32:14;100681.67;;;6.88;82.99
84841;BME280;75088;53.114;18.040;2024-03-02T04:33:21;100677.08;;;6.87;83.15
84841;BME280;75088;53.114;18.040;2024-03-02T04:34:28;100673.73;;;6.87;82.92
84841;BME280;75088;53.114;18.040;2024-03-02T04:35:35;100678.67;;;6.87;82.83
84841;BME280;75088;53.114;18.040;2024-03-02T04:36:42;100671.96;;;6.87;83.01
84841;BME280;75088;53.114;18.040;2024-03-02T04:37:49;100672.49;;;6.87;83.00
84841;BME280;75088;53.114;18.040;2024-03-02T04:38:56;100670.02;;;6.87;82.92
84841;BME280;75088;53.114;18.040;2024-03-02T04:40:05;100671.79;;;6.86;83.09
84841;BME280;75088;53.114;18.040;2024-03-02T04:41:13;100674.79;;;6.88;83.09
84841;BME280;75088;53.114;18.040;2024-03-02T04:42:21;100674.43;;;6.88;83.14
84841;BME280;75088;53.114;18.040;2024-03-02T04:43:29;100677.44;;;6.88;83.08
84841;BME280;75088;53.114;18.040;2024-03-02T04:44:37;100683.45;;;6.87;83.09
84841;BME280;75088;53.114;18.040;2024-03-02T04:45:44;100680.09;;;6.86;82.89
84841;BME280;75088;53.114;18.040;2024-03-02T04:46:51;100674.26;;;6.86;82.76
84841;BME280;75088;53.114;18.040;2024-03-02T04:47:58;100676.38;;;6.85;82.85
84841;BME280;75088;53.114;18.040;2024-03-02T04:49:05;100679.72;;;6.85;82.89
84841;BME280;75088;53.114;18.040;2024-03-02T04:50:13;100688.55;;;6.85;83.18
84841;BME280;75088;53.114;18.040;2024-03-02T04:51:20;100693.14;;;6.85;83.29
84841;BME280;75088;53.114;18.040;2024-03-02T04:52:27;100688.91;;;6.84;82.98
84841;BME280;75088;53.114;18.040;2024-03-02T04:53:34;100686.43;;;6.84;83.21
84841;BME280;75088;53.114;18.040;2024-03-02T04:54:41;100695.45;;;6.85;83.18
84841;BME280;75088;53.114;18.040;2024-03-02T04:56:03;100705.52;;;6.84;83.10
84841;BME280;75088;53.114;18.040;2024-03-02T04:57:28;100701.29;;;6.83;82.58
84841;BME280;75088;53.114;18.040;2024-03-02T04:58:35;100695.10;;;6.82;82.90
84841;BME280;75088;53.114;18.040;2024-03-02T04:59:42;100699.17;;;6.83;83.02
84841;BME280;75088;53.114;18.040;2024-03-02T05:00:49;100701.28;;;6.82;82.92
84841;BME280;75088;53.114;18.040;2024-03-02T05:01:56;100706.77;;;6.82;82.78
84841;BME280;75088;53.114;18.040;2024-03-02T05:03:05;100707.30;;;6.82;82.90
84841;BME280;75088;53.114;18.040;2024-03-02T05:04:12;100702.88;;;6.81;83.04
84841;BME280;75088;53.114;18.040;2024-03-02T05:05:19;100707.46;;;6.82;82.90
84841;BME280;75088;53.114;18.040;2024-03-02T05:06:26;100711.88;;;6.81;83.03
84841;BME280;75088;53.114;18.040;2024-03-02T05:07:33;100715.59;;;6.81;82.91
84841;BME280;75088;53.114;18.040;2024-03-02T05:08:40;100711.88;;;6.81;82.88
84841;BME280;75088;53.114;18.040;2024-03-02T05:09:47;100712.05;;;6.81;83.03
84841;BME280;75088;53.114;18.040;2024-03-02T05:10:54;100710.29;;;6.82;82.66
84841;BME280;75088;53.114;18.040;2024-03-02T05:12:21;100714.70;;;6.81;83.14
84841;BME280;75088;53.114;18.040;2024-03-02T05:14:00;100716.64;;;6.80;83.13
84841;BME280;75088;53.114;18.040;2024-03-02T05:15:09;100720.17;;;6.79;83.11
84841;BME280;75088;53.114;18.040;2024-03-02T05:16:16;100718.58;;;6.80;82.92
84841;BME280;75088;53.114;18.040;2024-03-02T05:17:23;100721.41;;;6.81;83.15
84841;BME280;75088;53.114;18.040;2024-03-02T05:18:30;100719.48;;;6.82;83.05
84841;BME280;75088;53.114;18.040;2024-03-02T05:19:37;100720.35;;;6.82;82.97
84841;BME280;75088;53.114;18.040;2024-03-02T05:20:46;100720.36;;;6.82;82.87
84841;BME280;75088;53.114;18.040;2024-03-02T05:21:53;100715.05;;;6.81;82.98
84841;BME280;75088;53.114;18.040;2024-03-02T05:23:00;100717.17;;;6.82;83.08
84841;BME280;75088;53.114;18.040;2024-03-02T05:24:08;100718.41;;;6.82;82.91
84841;BME280;75088;53.114;18.040;2024-03-02T05:25:16;100718.05;;;6.82;83.05
84841;BME280;75088;53.114;18.040;2024-03-02T05:26:23;100713.48;;;6.82;83.05
84841;BME280;75088;53.114;18.040;2024-03-02T05:27:30;100719.13;;;6.83;83.08
84841;BME280;75088;53.114;18.040;2024-03-02T05:28:39;100720.00;;;6.84;82.93
84841;BME280;75088;53.114;18.040;2024-03-02T05:29:46;100718.60;;;6.83;82.84
84841;BME280;75088;53.114;18.040;2024-03-02T05:30:53;100716.64;;;6.84;83.08
84841;BME280;75088;53.114;18.040;2024-03-02T05:32:00;100720.87;;;6.84;82.83
84841;BME280;75088;53.114;18.040;2024-03-02T05:33:07;100724.23;;;6.84;82.97
84841;BME280;75088;53.114;18.040;2024-03-02T05:34:15;100723.17;;;6.84;82.92
84841;BME280;75088;53.114;18.040;2024-03-02T05:35:22;100725.64;;;6.85;83.29
84841;BME280;75088;53.114;18.040;2024-03-02T05:36:29;100723.70;;;6.85;82.97
84841;BME280;75088;53.114;18.040;2024-03-02T05:37:37;100721.05;;;6.86;83.34
84841;BME280;75088;53.114;18.040;2024-03-02T05:38:44;100713.61;;;6.82;83.16
84841;BME280;75088;53.114;18.040;2024-03-02T05:39:51;100723.17;;;6.86;83.11
84841;BME280;75088;53.114;18.040;2024-03-02T05:40:59;100724.77;;;6.86;82.99
84841;BME280;75088;53.114;18.040;2024-03-02T05:42:06;100726.71;;;6.87;83.12
84841;BME280;75088;53.114;18.040;2024-03-02T05:43:14;100730.06;;;6.88;83.21
84841;BME280;75088;53.114;18.040;2024-03-02T05:44:21;100728.48;;;6.88;82.91
84841;BME280;75088;53.114;18.040;2024-03-02T05:45:28;100732.01;;;6.88;83.05
84841;BME280;75088;53.114;18.040;2024-03-02T05:46:36;100731.48;;;6.88;83.24
84841;BME280;75088;53.114;18.040;2024-03-02T05:47:42;100732.73;;;6.89;82.91
84841;BME280;75088;53.114;18.040;2024-03-02T05:48:49;100732.19;;;6.88;83.28
84841;BME280;75088;53.114;18.040;2024-03-02T05:49:57;100744.73;;;6.88;83.06
84841;BME280;75088;53.114;18.040;2024-03-02T05:51:04;100739.95;;;6.88;82.87
84841;BME280;75088;53.114;18.040;2024-03-02T05:52:11;100739.08;;;6.88;82.93
84841;BME280;75088;53.114;18.040;2024-03-02T05:53:18;100742.25;;;6.89;82.98
84841;BME280;75088;53.114;18.040;2024-03-02T05:54:25;100744.21;;;6.90;83.07
84841;BME280;75088;53.114;18.040;2024-03-02T05:55:33;100743.14;;;6.90;82.83
84841;BME280;75088;53.114;18.040;2024-03-02T05:56:40;100743.33;;;6.90;83.04
84841;BME280;75088;53.114;18.040;2024-03-02T05:57:47;100741.02;;;6.89;82.85